sensor_id;sensor_type;location;lat;lon;timestamp;P1;durP1;ratioP1;P2;durP2;ratioP2
24547;SDS011;12713;51.624;4.924;2023-04-24T00:01:36;28.20;;;18.38;;
24547;SDS011;12713;51.624;4.924;2023-04-24T00:04:04;24.92;;;18.90;;
24547;SDS011;12713;51.624;4.924;2023-04-24T00:06:31;27.45;;;20.17;;
24547;SDS011;12713;51.624;4.924;2023-04-24T00:09:02;25.15;;;18.90;;
24547;SDS011;12713;51.624;4.924;2023-04-24T00:11:28;26.80;;;19.30;;
24547;SDS011;12713;51.624;4.924;2023-04-24T00:13:55;25.02;;;18.13;;
24547;SDS011;12713;51.624;4.924;2023-04-24T00:16:21;22.35;;;16.67;;
24547;SDS011;12713;51.624;4.924;2023-04-24T00:18:47;26.85;;;18.40;;
24547;SDS011;12713;51.624;4.924;2023-04-24T00:21:16;25.20;;;17.52;;
24547;SDS011;12713;51.624;4.924;2023-04-24T00:23:42;24.83;;;17.13;;
24547;SDS011;12713;51.624;4.924;2023-04-24T00:26:09;22.63;;;17.55;;
24547;SDS011;12713;51.624;4.924;2023-04-24T00:28:35;26.63;;;17.67;;
24547;SDS011;12713;51.624;4.924;2023-04-24T00:31:01;21.77;;;16.75;;
24547;SDS011;12713;51.624;4.924;2023-04-24T00:33:27;26.48;;;18.30;;
24547;SDS011;12713;51.624;4.924;2023-04-24T00:35:53;24.17;;;17.63;;
24547;SDS011;12713;51.624;4.924;2023-04-24T00:38:20;26.27;;;17.45;;
24547;SDS011;12713;51.624;4.924;2023-04-24T00:40:47;24.20;;;18.05;;
24547;SDS011;12713;51.624;4.924;2023-04-24T00:43:14;22.63;;;16.00;;
24547;SDS011;12713;51.624;4.924;2023-04-24T00:45:40;29.50;;;19.15;;
24547;SDS011;12713;51.624;4.924;2023-04-24T00:48:07;30.05;;;19.92;;
24547;SDS011;12713;51.624;4.924;2023-04-24T00:50:35;33.70;;;20.45;;
24547;SDS011;12713;51.624;4.924;2023-04-24T00:53:01;30.40;;;20.63;;
24547;SDS011;12713;51.624;4.924;2023-04-24T00:55:27;31.85;;;21.30;;
24547;SDS011;12713;51.624;4.924;2023-04-24T00:57:53;29.33;;;20.45;;
24547;SDS011;12713;51.624;4.924;2023-04-24T01:00:20;30.77;;;21.38;;
24547;SDS011;12713;51.624;4.924;2023-04-24T01:02:46;31.92;;;21.50;;
24547;SDS011;12713;51.624;4.924;2023-04-24T01:05:13;29.23;;;20.52;;
24547;SDS011;12713;51.624;4.924;2023-04-24T01:07:43;25.60;;;18.00;;
24547;SDS011;12713;51.624;4.924;2023-04-24T01:10:10;25.88;;;16.55;;
24547;SDS011;12713;51.624;4.924;2023-04-24T01:12:37;25.15;;;16.63;;
24547;SDS011;12713;51.624;4.924;2023-04-24T01:15:03;24.77;;;15.63;;
24547;SDS011;12713;51.624;4.924;2023-04-24T01:17:29;22.02;;;15.55;;
24547;SDS011;12713;51.624;4.924;2023-04-24T01:19:56;22.67;;;15.13;;
24547;SDS011;12713;51.624;4.924;2023-04-24T01:22:22;26.60;;;16.17;;
24547;SDS011;12713;51.624;4.924;2023-04-24T01:24:48;25.20;;;17.20;;
24547;SDS011;12713;51.624;4.924;2023-04-24T01:27:14;21.42;;;15.50;;
24547;SDS011;12713;51.624;4.924;2023-04-24T01:29:40;27.30;;;18.60;;
24547;SDS011;12713;51.624;4.924;2023-04-24T01:32:06;27.38;;;19.48;;
24547;SDS011;12713;51.624;4.924;2023-04-24T01:34:33;27.95;;;20.17;;
24547;SDS011;12713;51.624;4.924;2023-04-24T01:36:59;29.88;;;21.63;;
24547;SDS011;12713;51.624;4.924;2023-04-24T01:39:25;33.53;;;23.17;;
24547;SDS011;12713;51.624;4.924;2023-04-24T01:41:53;32.28;;;23.33;;
24547;SDS011;12713;51.624;4.924;2023-04-24T01:44:19;36.90;;;24.50;;
24547;SDS011;12713;51.624;4.924;2023-04-24T01:46:45;37.47;;;23.65;;
24547;SDS011;12713;51.624;4.924;2023-04-24T01:49:12;34.78;;;24.20;;
24547;SDS011;12713;51.624;4.924;2023-04-24T01:51:38;31.75;;;23.05;;
24547;SDS011;12713;51.624;4.924;2023-04-24T01:54:04;32.65;;;23.55;;
24547;SDS011;12713;51.624;4.924;2023-04-24T01:56:31;34.92;;;24.13;;
24547;SDS011;12713;51.624;4.924;2023-04-24T01:58:58;29.50;;;21.15;;
24547;SDS011;12713;51.624;4.924;2023-04-24T02:01:25;30.05;;;19.95;;
24547;SDS011;12713;51.624;4.924;2023-04-24T02:03:51;33.50;;;21.38;;
24547;SDS011;12713;51.624;4.924;2023-04-24T02:06:17;35.55;;;20.55;;
24547;SDS011;12713;51.624;4.924;2023-04-24T02:08:43;28.67;;;19.75;;
24547;SDS011;12713;51.624;4.924;2023-04-24T02:11:09;27.27;;;18.42;;
24547;SDS011;12713;51.624;4.924;2023-04-24T02:13:35;25.13;;;17.02;;
24547;SDS011;12713;51.624;4.924;2023-04-24T02:16:02;28.02;;;17.40;;
24547;SDS011;12713;51.624;4.924;2023-04-24T02:18:28;30.15;;;19.17;;
24547;SDS011;12713;51.624;4.924;2023-04-24T02:20:53;29.70;;;19.10;;
24547;SDS011;12713;51.624;4.924;2023-04-24T02:23:19;28.15;;;18.00;;
24547;SDS011;12713;51.624;4.924;2023-04-24T02:25:46;28.45;;;19.85;;
24547;SDS011;12713;51.624;4.924;2023-04-24T02:28:12;27.50;;;18.63;;
24547;SDS011;12713;51.624;4.924;2023-04-24T02:30:38;31.25;;;20.30;;
24547;SDS011;12713;51.624;4.924;2023-04-24T02:33:04;27.80;;;17.55;;
24547;SDS011;12713;51.624;4.924;2023-04-24T02:35:30;21.30;;;17.45;;
24547;SDS011;12713;51.624;4.924;2023-04-24T02:37:56;25.00;;;17.95;;
24547;SDS011;12713;51.624;4.924;2023-04-24T02:40:22;30.05;;;17.40;;
24547;SDS011;12713;51.624;4.924;2023-04-24T02:42:48;24.98;;;17.33;;
24547;SDS011;12713;51.624;4.924;2023-04-24T02:45:14;28.80;;;17.15;;
24547;SDS011;12713;51.624;4.924;2023-04-24T02:47:41;25.13;;;16.98;;
24547;SDS011;12713;51.624;4.924;2023-04-24T02:50:07;29.60;;;17.73;;
24547;SDS011;12713;51.624;4.924;2023-04-24T02:52:33;26.40;;;16.95;;
24547;SDS011;12713;51.624;4.924;2023-04-24T02:54:59;29.08;;;17.10;;
24547;SDS011;12713;51.624;4.924;2023-04-24T02:57:25;25.38;;;16.92;;
24547;SDS011;12713;51.624;4.924;2023-04-24T02:59:51;21.73;;;14.98;;
24547;SDS011;12713;51.624;4.924;2023-04-24T03:02:17;24.58;;;15.18;;
24547;SDS011;12713;51.624;4.924;2023-04-24T03:04:43;23.10;;;14.32;;
24547;SDS011;12713;51.624;4.924;2023-04-24T03:07:09;23.80;;;15.23;;
24547;SDS011;12713;51.624;4.924;2023-04-24T03:09:35;24.02;;;14.63;;
24547;SDS011;12713;51.624;4.924;2023-04-24T03:12:01;25.08;;;14.82;;
24547;SDS011;12713;51.624;4.924;2023-04-24T03:14:27;23.55;;;14.80;;
24547;SDS011;12713;51.624;4.924;2023-04-24T03:16:56;24.73;;;14.77;;
24547;SDS011;12713;51.624;4.924;2023-04-24T03:19:22;27.00;;;15.68;;
24547;SDS011;12713;51.624;4.924;2023-04-24T03:21:48;19.20;;;13.57;;
24547;SDS011;12713;51.624;4.924;2023-04-24T03:24:14;26.83;;;15.27;;
24547;SDS011;12713;51.624;4.924;2023-04-24T03:26:40;24.02;;;13.70;;
24547;SDS011;12713;51.624;4.924;2023-04-24T03:29:06;23.10;;;13.93;;
24547;SDS011;12713;51.624;4.924;2023-04-24T03:31:32;20.55;;;13.48;;
24547;SDS011;12713;51.624;4.924;2023-04-24T03:33:58;20.25;;;12.32;;
24547;SDS011;12713;51.624;4.924;2023-04-24T03:36:24;20.25;;;12.38;;
24547;SDS011;12713;51.624;4.924;2023-04-24T03:38:51;19.88;;;13.18;;
24547;SDS011;12713;51.624;4.924;2023-04-24T03:41:17;17.73;;;12.45;;
24547;SDS011;12713;51.624;4.924;2023-04-24T03:43:43;17.90;;;11.95;;
24547;SDS011;12713;51.624;4.924;2023-04-24T03:46:10;19.20;;;12.10;;
24547;SDS011;12713;51.624;4.924;2023-04-24T03:48:36;20.20;;;11.90;;
24547;SDS011;12713;51.624;4.924;2023-04-24T03:51:02;16.58;;;11.55;;
24547;SDS011;12713;51.624;4.924;2023-04-24T03:53:28;15.68;;;10.68;;
24547;SDS011;12713;51.624;4.924;2023-04-24T03:55:54;14.57;;;10.27;;
24547;SDS011;12713;51.624;4.924;2023-04-24T03:58:20;16.20;;;10.85;;
24547;SDS011;12713;51.624;4.924;2023-04-24T04:00:46;15.60;;;9.75;;
24547;SDS011;12713;51.624;4.924;2023-04-24T04:03:13;14.23;;;9.80;;
24547;SDS011;12713;51.624;4.924;2023-04-24T04:05:39;14.25;;;8.98;;
24547;SDS011;12713;51.624;4.924;2023-04-24T04:08:05;10.82;;;8.30;;
24547;SDS011;12713;51.624;4.924;2023-04-24T04:10:31;12.88;;;9.25;;
24547;SDS011;12713;51.624;4.924;2023-04-24T04:12:57;11.68;;;7.88;;
24547;SDS011;12713;51.624;4.924;2023-04-24T04:15:23;12.63;;;9.07;;
24547;SDS011;12713;51.624;4.924;2023-04-24T04:17:49;10.32;;;7.25;;
24547;SDS011;12713;51.624;4.924;2023-04-24T04:20:15;10.85;;;8.25;;
24547;SDS011;12713;51.624;4.924;2023-04-24T04:22:41;11.35;;;6.30;;
24547;SDS011;12713;51.624;4.924;2023-04-24T04:25:07;8.85;;;5.70;;
24547;SDS011;12713;51.624;4.924;2023-04-24T04:27:34;9.20;;;5.43;;
24547;SDS011;12713;51.624;4.924;2023-04-24T04:30:00;6.80;;;4.47;;
24547;SDS011;12713;51.624;4.924;2023-04-24T04:32:33;6.93;;;4.68;;
24547;SDS011;12713;51.624;4.924;2023-04-24T04:34:59;6.20;;;3.83;;
24547;SDS011;12713;51.624;4.924;2023-04-24T04:37:31;6.45;;;2.97;;
24547;SDS011;12713;51.624;4.924;2023-04-24T04:40:01;7.28;;;2.97;;
24547;SDS011;12713;51.624;4.924;2023-04-24T04:42:36;5.03;;;2.78;;
24547;SDS011;12713;51.624;4.924;2023-04-24T04:45:05;4.05;;;2.70;;
24547;SDS011;12713;51.624;4.924;2023-04-24T04:47:34;4.43;;;2.78;;
24547;SDS011;12713;51.624;4.924;2023-04-24T04:50:00;10.52;;;4.10;;
24547;SDS011;12713;51.624;4.924;2023-04-24T04:52:26;8.00;;;4.45;;
24547;SDS011;12713;51.624;4.924;2023-04-24T04:54:52;10.48;;;5.38;;
24547;SDS011;12713;51.624;4.924;2023-04-24T04:57:18;8.60;;;5.40;;
24547;SDS011;12713;51.624;4.924;2023-04-24T04:59:45;12.55;;;5.70;;
24547;SDS011;12713;51.624;4.924;2023-04-24T05:02:11;10.88;;;6.35;;
24547;SDS011;12713;51.624;4.924;2023-04-24T05:04:37;8.07;;;5.93;;
24547;SDS011;12713;51.624;4.924;2023-04-24T05:07:03;9.82;;;6.30;;
24547;SDS011;12713;51.624;4.924;2023-04-24T05:09:30;11.27;;;7.20;;
24547;SDS011;12713;51.624;4.924;2023-04-24T05:11:56;13.05;;;7.00;;
24547;SDS011;12713;51.624;4.924;2023-04-24T05:14:22;12.43;;;7.00;;
24547;SDS011;12713;51.624;4.924;2023-04-24T05:16:48;18.38;;;8.18;;
24547;SDS011;12713;51.624;4.924;2023-04-24T05:19:14;16.30;;;8.23;;
24547;SDS011;12713;51.624;4.924;2023-04-24T05:21:40;15.25;;;8.45;;
24547;SDS011;12713;51.624;4.924;2023-04-24T05:24:06;12.35;;;7.57;;
24547;SDS011;12713;51.624;4.924;2023-04-24T05:26:32;14.05;;;9.85;;
24547;SDS011;12713;51.624;4.924;2023-04-24T05:28:58;17.05;;;10.23;;
24547;SDS011;12713;51.624;4.924;2023-04-24T05:31:25;21.98;;;12.18;;
24547;SDS011;12713;51.624;4.924;2023-04-24T05:33:51;16.95;;;11.20;;
24547;SDS011;12713;51.624;4.924;2023-04-24T05:36:17;18.58;;;11.75;;
24547;SDS011;12713;51.624;4.924;2023-04-24T05:38:43;16.00;;;10.98;;
24547;SDS011;12713;51.624;4.924;2023-04-24T05:41:09;20.52;;;11.80;;
24547;SDS011;12713;51.624;4.924;2023-04-24T05:43:35;19.77;;;13.20;;
24547;SDS011;12713;51.624;4.924;2023-04-24T05:46:01;19.85;;;12.68;;
24547;SDS011;12713;51.624;4.924;2023-04-24T05:48:27;26.67;;;14.13;;
24547;SDS011;12713;51.624;4.924;2023-04-24T05:50:53;23.63;;;13.80;;
24547;SDS011;12713;51.624;4.924;2023-04-24T05:53:19;26.95;;;13.63;;
24547;SDS011;12713;51.624;4.924;2023-04-24T05:55:45;20.40;;;13.82;;
24547;SDS011;12713;51.624;4.924;2023-04-24T05:58:11;24.15;;;14.57;;
24547;SDS011;12713;51.624;4.924;2023-04-24T06:00:38;23.60;;;14.73;;
24547;SDS011;12713;51.624;4.924;2023-04-24T06:03:07;21.42;;;14.23;;
24547;SDS011;12713;51.624;4.924;2023-04-24T06:05:33;23.63;;;14.48;;
24547;SDS011;12713;51.624;4.924;2023-04-24T06:08:00;30.02;;;15.52;;
24547;SDS011;12713;51.624;4.924;2023-04-24T06:10:26;27.05;;;16.55;;
24547;SDS011;12713;51.624;4.924;2023-04-24T06:12:52;28.42;;;14.75;;
24547;SDS011;12713;51.624;4.924;2023-04-24T06:15:21;26.98;;;16.42;;
24547;SDS011;12713;51.624;4.924;2023-04-24T06:17:47;29.00;;;17.73;;
24547;SDS011;12713;51.624;4.924;2023-04-24T06:20:13;30.83;;;17.67;;
24547;SDS011;12713;51.624;4.924;2023-04-24T06:22:39;25.77;;;16.00;;
24547;SDS011;12713;51.624;4.924;2023-04-24T06:25:05;28.13;;;16.52;;
24547;SDS011;12713;51.624;4.924;2023-04-24T06:27:32;25.38;;;15.93;;
24547;SDS011;12713;51.624;4.924;2023-04-24T06:29:58;31.33;;;18.17;;
24547;SDS011;12713;51.624;4.924;2023-04-24T06:32:24;32.35;;;16.55;;
24547;SDS011;12713;51.624;4.924;2023-04-24T06:34:51;25.70;;;17.95;;
24547;SDS011;12713;51.624;4.924;2023-04-24T06:37:18;29.48;;;16.23;;
24547;SDS011;12713;51.624;4.924;2023-04-24T06:39:44;26.58;;;15.48;;
24547;SDS011;12713;51.624;4.924;2023-04-24T06:42:10;37.88;;;17.88;;
24547;SDS011;12713;51.624;4.924;2023-04-24T06:44:36;26.17;;;14.70;;
24547;SDS011;12713;51.624;4.924;2023-04-24T06:47:12;29.20;;;14.68;;
24547;SDS011;12713;51.624;4.924;2023-04-24T06:49:38;30.50;;;14.77;;
24547;SDS011;12713;51.624;4.924;2023-04-24T06:52:05;29.90;;;14.88;;
24547;SDS011;12713;51.624;4.924;2023-04-24T06:54:31;29.13;;;14.25;;
24547;SDS011;12713;51.624;4.924;2023-04-24T06:56:57;23.27;;;12.35;;
24547;SDS011;12713;51.624;4.924;2023-04-24T06:59:25;29.00;;;11.77;;
24547;SDS011;12713;51.624;4.924;2023-04-24T07:01:51;33.95;;;11.80;;
24547;SDS011;12713;51.624;4.924;2023-04-24T07:04:17;26.45;;;10.77;;
24547;SDS011;12713;51.624;4.924;2023-04-24T07:06:44;29.58;;;11.23;;
24547;SDS011;12713;51.624;4.924;2023-04-24T07:09:11;32.45;;;9.95;;
24547;SDS011;12713;51.624;4.924;2023-04-24T07:11:38;16.67;;;9.30;;
24547;SDS011;12713;51.624;4.924;2023-04-24T07:14:05;25.63;;;10.07;;
24547;SDS011;12713;51.624;4.924;2023-04-24T07:16:32;21.52;;;9.45;;
24547;SDS011;12713;51.624;4.924;2023-04-24T07:18:58;22.63;;;8.95;;
24547;SDS011;12713;51.624;4.924;2023-04-24T07:21:24;25.65;;;10.45;;
24547;SDS011;12713;51.624;4.924;2023-04-24T07:23:50;24.00;;;9.02;;
24547;SDS011;12713;51.624;4.924;2023-04-24T07:26:16;28.58;;;10.20;;
24547;SDS011;12713;51.624;4.924;2023-04-24T07:28:42;24.95;;;9.23;;
24547;SDS011;12713;51.624;4.924;2023-04-24T07:31:08;25.20;;;10.23;;
24547;SDS011;12713;51.624;4.924;2023-04-24T07:33:34;26.75;;;10.23;;
24547;SDS011;12713;51.624;4.924;2023-04-24T07:36:01;29.08;;;11.32;;
24547;SDS011;12713;51.624;4.924;2023-04-24T07:38:29;32.55;;;11.60;;
24547;SDS011;12713;51.624;4.924;2023-04-24T07:40:55;30.85;;;11.57;;
24547;SDS011;12713;51.624;4.924;2023-04-24T07:43:21;33.58;;;9.90;;
24547;SDS011;12713;51.624;4.924;2023-04-24T07:45:48;28.42;;;9.93;;
24547;SDS011;12713;51.624;4.924;2023-04-24T07:48:14;34.65;;;10.48;;
24547;SDS011;12713;51.624;4.924;2023-04-24T07:50:42;31.30;;;9.95;;
24547;SDS011;12713;51.624;4.924;2023-04-24T07:53:08;28.73;;;9.68;;
24547;SDS011;12713;51.624;4.924;2023-04-24T07:55:35;32.70;;;9.18;;
24547;SDS011;12713;51.624;4.924;2023-04-24T07:58:01;20.38;;;9.15;;
24547;SDS011;12713;51.624;4.924;2023-04-24T08:00:27;26.60;;;8.20;;
24547;SDS011;12713;51.624;4.924;2023-04-24T08:02:53;33.53;;;7.65;;
24547;SDS011;12713;51.624;4.924;2023-04-24T08:05:19;23.23;;;7.20;;
24547;SDS011;12713;51.624;4.924;2023-04-24T08:07:45;25.67;;;7.07;;
24547;SDS011;12713;51.624;4.924;2023-04-24T08:10:13;19.80;;;6.35;;
24547;SDS011;12713;51.624;4.924;2023-04-24T08:12:40;20.70;;;6.78;;
24547;SDS011;12713;51.624;4.924;2023-04-24T08:15:07;22.88;;;7.03;;
24547;SDS011;12713;51.624;4.924;2023-04-24T08:17:34;23.60;;;7.65;;
24547;SDS011;12713;51.624;4.924;2023-04-24T08:20:00;20.48;;;6.75;;
24547;SDS011;12713;51.624;4.924;2023-04-24T08:22:29;15.82;;;5.72;;
24547;SDS011;12713;51.624;4.924;2023-04-24T08:24:55;21.45;;;5.88;;
24547;SDS011;12713;51.624;4.924;2023-04-24T08:27:22;18.52;;;5.00;;
24547;SDS011;12713;51.624;4.924;2023-04-24T08:29:48;22.30;;;6.43;;
24547;SDS011;12713;51.624;4.924;2023-04-24T08:32:14;20.42;;;6.05;;
24547;SDS011;12713;51.624;4.924;2023-04-24T08:34:40;15.77;;;5.10;;
24547;SDS011;12713;51.624;4.924;2023-04-24T08:37:06;22.00;;;5.63;;
24547;SDS011;12713;51.624;4.924;2023-04-24T08:39:32;16.35;;;5.55;;
24547;SDS011;12713;51.624;4.924;2023-04-24T08:41:58;15.10;;;4.43;;
24547;SDS011;12713;51.624;4.924;2023-04-24T08:44:31;13.05;;;4.85;;
24547;SDS011;12713;51.624;4.924;2023-04-24T08:46:57;16.58;;;4.80;;
24547;SDS011;12713;51.624;4.924;2023-04-24T08:49:24;14.38;;;4.57;;
24547;SDS011;12713;51.624;4.924;2023-04-24T08:51:51;16.17;;;4.90;;
24547;SDS011;12713;51.624;4.924;2023-04-24T08:54:18;23.55;;;5.63;;
24547;SDS011;12713;51.624;4.924;2023-04-24T08:56:44;21.35;;;4.45;;
24547;SDS011;12713;51.624;4.924;2023-04-24T08:59:11;18.67;;;5.25;;
24547;SDS011;12713;51.624;4.924;2023-04-24T09:01:38;13.48;;;4.28;;
24547;SDS011;12713;51.624;4.924;2023-04-24T09:04:05;15.98;;;4.50;;
24547;SDS011;12713;51.624;4.924;2023-04-24T09:06:32;16.35;;;4.07;;
24547;SDS011;12713;51.624;4.924;2023-04-24T09:09:00;16.98;;;4.35;;
24547;SDS011;12713;51.624;4.924;2023-04-24T09:11:27;15.95;;;4.70;;
24547;SDS011;12713;51.624;4.924;2023-04-24T09:13:53;17.02;;;4.50;;
24547;SDS011;12713;51.624;4.924;2023-04-24T09:16:20;15.88;;;4.00;;
24547;SDS011;12713;51.624;4.924;2023-04-24T09:18:48;12.80;;;3.42;;
24547;SDS011;12713;51.624;4.924;2023-04-24T09:21:14;14.65;;;3.92;;
24547;SDS011;12713;51.624;4.924;2023-04-24T09:23:40;13.02;;;3.83;;
24547;SDS011;12713;51.624;4.924;2023-04-24T09:26:06;21.05;;;3.90;;
24547;SDS011;12713;51.624;4.924;2023-04-24T09:28:38;16.02;;;3.75;;
24547;SDS011;12713;51.624;4.924;2023-04-24T09:33:30;10.73;;;2.97;;
24547;SDS011;12713;51.624;4.924;2023-04-24T09:35:56;7.35;;;2.40;;
24547;SDS011;12713;51.624;4.924;2023-04-24T09:38:30;7.72;;;1.98;;
24547;SDS011;12713;51.624;4.924;2023-04-24T09:40:58;9.93;;;2.45;;
24547;SDS011;12713;51.624;4.924;2023-04-24T09:43:26;6.28;;;1.77;;
24547;SDS011;12713;51.624;4.924;2023-04-24T09:45:53;6.05;;;1.63;;
24547;SDS011;12713;51.624;4.924;2023-04-24T09:48:29;9.02;;;2.05;;
24547;SDS011;12713;51.624;4.924;2023-04-24T09:50:55;6.47;;;2.17;;
24547;SDS011;12713;51.624;4.924;2023-04-24T09:53:23;6.38;;;2.25;;
24547;SDS011;12713;51.624;4.924;2023-04-24T09:55:49;6.60;;;1.83;;
24547;SDS011;12713;51.624;4.924;2023-04-24T09:58:18;8.52;;;1.40;;
24547;SDS011;12713;51.624;4.924;2023-04-24T10:00:44;6.00;;;1.67;;
24547;SDS011;12713;51.624;4.924;2023-04-24T10:03:11;6.60;;;1.33;;
24547;SDS011;12713;51.624;4.924;2023-04-24T10:05:37;8.80;;;1.45;;
24547;SDS011;12713;51.624;4.924;2023-04-24T10:08:04;4.57;;;1.40;;
24547;SDS011;12713;51.624;4.924;2023-04-24T10:10:31;5.47;;;1.30;;
24547;SDS011;12713;51.624;4.924;2023-04-24T10:12:58;5.20;;;1.42;;
24547;SDS011;12713;51.624;4.924;2023-04-24T10:15:25;6.28;;;2.13;;
24547;SDS011;12713;51.624;4.924;2023-04-24T10:17:54;5.65;;;1.90;;
24547;SDS011;12713;51.624;4.924;2023-04-24T10:20:21;6.95;;;1.67;;
24547;SDS011;12713;51.624;4.924;2023-04-24T10:22:54;4.20;;;1.38;;
24547;SDS011;12713;51.624;4.924;2023-04-24T10:25:21;10.32;;;2.80;;
24547;SDS011;12713;51.624;4.924;2023-04-24T10:27:48;10.27;;;2.03;;
24547;SDS011;12713;51.624;4.924;2023-04-24T10:30:14;6.22;;;1.65;;
24547;SDS011;12713;51.624;4.924;2023-04-24T10:32:40;5.50;;;1.50;;
24547;SDS011;12713;51.624;4.924;2023-04-24T10:35:07;5.15;;;1.80;;
24547;SDS011;12713;51.624;4.924;2023-04-24T10:37:37;7.90;;;1.60;;
24547;SDS011;12713;51.624;4.924;2023-04-24T10:40:04;7.93;;;1.50;;
24547;SDS011;12713;51.624;4.924;2023-04-24T10:42:32;5.30;;;1.52;;
24547;SDS011;12713;51.624;4.924;2023-04-24T10:44:58;3.53;;;1.05;;
24547;SDS011;12713;51.624;4.924;2023-04-24T10:47:26;4.53;;;1.48;;
24547;SDS011;12713;51.624;4.924;2023-04-24T10:49:53;5.85;;;1.55;;
24547;SDS011;12713;51.624;4.924;2023-04-24T10:52:19;9.98;;;1.25;;
24547;SDS011;12713;51.624;4.924;2023-04-24T10:54:46;5.00;;;1.35;;
24547;SDS011;12713;51.624;4.924;2023-04-24T10:59:45;7.07;;;1.30;;
24547;SDS011;12713;51.624;4.924;2023-04-24T11:02:14;6.90;;;1.60;;
24547;SDS011;12713;51.624;4.924;2023-04-24T11:04:40;6.78;;;1.50;;
24547;SDS011;12713;51.624;4.924;2023-04-24T11:07:11;4.70;;;1.48;;
24547;SDS011;12713;51.624;4.924;2023-04-24T11:09:37;9.68;;;1.50;;
24547;SDS011;12713;51.624;4.924;2023-04-24T11:12:06;9.98;;;1.95;;
24547;SDS011;12713;51.624;4.924;2023-04-24T11:17:36;5.90;;;1.65;;
24547;SDS011;12713;51.624;4.924;2023-04-24T11:20:07;5.32;;;1.90;;
24547;SDS011;12713;51.624;4.924;2023-04-24T11:22:34;6.30;;;1.65;;
24547;SDS011;12713;51.624;4.924;2023-04-24T11:25:01;7.60;;;1.20;;
24547;SDS011;12713;51.624;4.924;2023-04-24T11:27:29;6.32;;;1.73;;
24547;SDS011;12713;51.624;4.924;2023-04-24T11:37:44;7.90;;;1.40;;
24547;SDS011;12713;51.624;4.924;2023-04-24T11:40:12;6.13;;;1.40;;
24547;SDS011;12713;51.624;4.924;2023-04-24T11:42:39;12.73;;;2.30;;
24547;SDS011;12713;51.624;4.924;2023-04-24T11:45:07;5.35;;;1.27;;
24547;SDS011;12713;51.624;4.924;2023-04-24T11:47:33;4.57;;;1.35;;
24547;SDS011;12713;51.624;4.924;2023-04-24T11:49:59;5.57;;;1.63;;
24547;SDS011;12713;51.624;4.924;2023-04-24T11:52:26;4.97;;;1.27;;
24547;SDS011;12713;51.624;4.924;2023-04-24T11:54:52;7.97;;;1.80;;
24547;SDS011;12713;51.624;4.924;2023-04-24T11:57:19;4.72;;;1.30;;
24547;SDS011;12713;51.624;4.924;2023-04-24T11:59:46;6.13;;;1.40;;
24547;SDS011;12713;51.624;4.924;2023-04-24T12:02:25;5.50;;;1.48;;
24547;SDS011;12713;51.624;4.924;2023-04-24T12:04:52;5.93;;;1.33;;
24547;SDS011;12713;51.624;4.924;2023-04-24T12:07:18;5.25;;;1.35;;
24547;SDS011;12713;51.624;4.924;2023-04-24T12:09:49;3.58;;;1.20;;
24547;SDS011;12713;51.624;4.924;2023-04-24T12:12:15;6.80;;;1.55;;
24547;SDS011;12713;51.624;4.924;2023-04-24T12:14:42;6.43;;;1.38;;
24547;SDS011;12713;51.624;4.924;2023-04-24T12:17:09;4.20;;;1.15;;
24547;SDS011;12713;51.624;4.924;2023-04-24T12:19:35;4.70;;;1.55;;
24547;SDS011;12713;51.624;4.924;2023-04-24T12:22:02;3.15;;;1.55;;
24547;SDS011;12713;51.624;4.924;2023-04-24T12:24:30;8.32;;;1.27;;
24547;SDS011;12713;51.624;4.924;2023-04-24T12:26:57;3.00;;;1.10;;
24547;SDS011;12713;51.624;4.924;2023-04-24T12:29:23;4.45;;;1.15;;
24547;SDS011;12713;51.624;4.924;2023-04-24T12:31:50;3.45;;;1.27;;
24547;SDS011;12713;51.624;4.924;2023-04-24T12:34:20;3.17;;;1.20;;
24547;SDS011;12713;51.624;4.924;2023-04-24T12:36:46;2.67;;;0.90;;
24547;SDS011;12713;51.624;4.924;2023-04-24T12:39:16;2.30;;;0.90;;
24547;SDS011;12713;51.624;4.924;2023-04-24T12:41:55;5.55;;;1.17;;
24547;SDS011;12713;51.624;4.924;2023-04-24T12:44:34;4.38;;;1.13;;
24547;SDS011;12713;51.624;4.924;2023-04-24T12:47:00;4.10;;;1.20;;
24547;SDS011;12713;51.624;4.924;2023-04-24T12:49:27;9.05;;;1.77;;
24547;SDS011;12713;51.624;4.924;2023-04-24T12:51:53;3.67;;;1.52;;
24547;SDS011;12713;51.624;4.924;2023-04-24T12:54:20;4.53;;;1.48;;
24547;SDS011;12713;51.624;4.924;2023-04-24T12:56:46;2.50;;;1.17;;
24547;SDS011;12713;51.624;4.924;2023-04-24T12:59:12;10.07;;;2.17;;
24547;SDS011;12713;51.624;4.924;2023-04-24T13:01:38;7.68;;;2.20;;
24547;SDS011;12713;51.624;4.924;2023-04-24T13:04:04;7.60;;;2.08;;
24547;SDS011;12713;51.624;4.924;2023-04-24T13:06:30;6.22;;;1.25;;
24547;SDS011;12713;51.624;4.924;2023-04-24T13:08:57;3.42;;;1.23;;
24547;SDS011;12713;51.624;4.924;2023-04-24T13:11:23;5.78;;;1.33;;
24547;SDS011;12713;51.624;4.924;2023-04-24T13:13:49;4.18;;;1.02;;
24547;SDS011;12713;51.624;4.924;2023-04-24T13:16:15;5.10;;;1.23;;
24547;SDS011;12713;51.624;4.924;2023-04-24T13:18:44;3.42;;;1.40;;
24547;SDS011;12713;51.624;4.924;2023-04-24T13:21:10;4.03;;;1.35;;
24547;SDS011;12713;51.624;4.924;2023-04-24T13:23:37;5.18;;;1.77;;
24547;SDS011;12713;51.624;4.924;2023-04-24T13:26:03;2.40;;;1.60;;
24547;SDS011;12713;51.624;4.924;2023-04-24T13:28:29;3.25;;;1.58;;
24547;SDS011;12713;51.624;4.924;2023-04-24T13:30:55;5.85;;;2.03;;
24547;SDS011;12713;51.624;4.924;2023-04-24T13:33:21;8.32;;;2.15;;
24547;SDS011;12713;51.624;4.924;2023-04-24T13:35:48;7.97;;;1.75;;
24547;SDS011;12713;51.624;4.924;2023-04-24T13:38:14;4.68;;;1.88;;
24547;SDS011;12713;51.624;4.924;2023-04-24T13:40:40;9.88;;;2.35;;
24547;SDS011;12713;51.624;4.924;2023-04-24T13:43:06;12.00;;;2.80;;
24547;SDS011;12713;51.624;4.924;2023-04-24T13:45:32;6.22;;;2.10;;
24547;SDS011;12713;51.624;4.924;2023-04-24T13:47:59;5.60;;;1.50;;
24547;SDS011;12713;51.624;4.924;2023-04-24T13:50:26;8.65;;;1.45;;
24547;SDS011;12713;51.624;4.924;2023-04-24T13:52:52;8.32;;;2.47;;
24547;SDS011;12713;51.624;4.924;2023-04-24T13:55:19;3.75;;;1.70;;
24547;SDS011;12713;51.624;4.924;2023-04-24T13:57:45;11.23;;;1.90;;
24547;SDS011;12713;51.624;4.924;2023-04-24T14:00:11;13.23;;;2.13;;
24547;SDS011;12713;51.624;4.924;2023-04-24T14:02:38;4.75;;;2.40;;
24547;SDS011;12713;51.624;4.924;2023-04-24T14:05:04;10.73;;;2.08;;
24547;SDS011;12713;51.624;4.924;2023-04-24T14:07:31;11.88;;;2.83;;
24547;SDS011;12713;51.624;4.924;2023-04-24T14:09:57;4.88;;;1.88;;
24547;SDS011;12713;51.624;4.924;2023-04-24T14:12:23;7.28;;;2.10;;
24547;SDS011;12713;51.624;4.924;2023-04-24T14:14:49;7.22;;;1.88;;
24547;SDS011;12713;51.624;4.924;2023-04-24T14:17:17;8.50;;;2.15;;
24547;SDS011;12713;51.624;4.924;2023-04-24T14:19:42;10.07;;;1.85;;
24547;SDS011;12713;51.624;4.924;2023-04-24T14:22:10;5.22;;;1.73;;
24547;SDS011;12713;51.624;4.924;2023-04-24T14:24:39;6.18;;;2.28;;
24547;SDS011;12713;51.624;4.924;2023-04-24T14:27:05;9.85;;;2.30;;
24547;SDS011;12713;51.624;4.924;2023-04-24T14:29:31;8.25;;;2.50;;
24547;SDS011;12713;51.624;4.924;2023-04-24T14:31:57;7.47;;;2.53;;
24547;SDS011;12713;51.624;4.924;2023-04-24T14:34:23;8.40;;;2.40;;
24547;SDS011;12713;51.624;4.924;2023-04-24T14:36:49;7.32;;;2.72;;
24547;SDS011;12713;51.624;4.924;2023-04-24T14:39:15;7.65;;;2.33;;
24547;SDS011;12713;51.624;4.924;2023-04-24T14:41:41;9.00;;;2.63;;
24547;SDS011;12713;51.624;4.924;2023-04-24T14:44:07;10.13;;;2.67;;
24547;SDS011;12713;51.624;4.924;2023-04-24T14:46:33;8.20;;;2.95;;